createdAt,value
2018-07-26T00:00:10.992Z,20.36
2018-07-26T00:01:11.217Z,20.31
2018-07-26T00:02:11.462Z,20.36
2018-07-26T00:03:11.716Z,20.20
2018-07-26T00:04:11.999Z,20.13
2018-07-26T00:05:12.246Z,19.96
2018-07-26T00:06:12.493Z,20.03
2018-07-26T00:07:12.739Z,19.80
2018-07-26T00:08:12.984Z,19.80
2018-07-26T00:09:13.229Z,19.77
2018-07-26T00:10:13.476Z,19.68
2018-07-26T00:11:13.719Z,19.68
2018-07-26T00:12:13.966Z,19.62
2018-07-26T00:13:14.239Z,19.68
2018-07-26T00:14:14.484Z,19.65
2018-07-26T00:15:14.728Z,19.73
2018-07-26T00:16:14.969Z,19.74
2018-07-26T00:17:15.215Z,19.73
2018-07-26T00:18:15.461Z,19.77
2018-07-26T00:19:15.705Z,19.76
2018-07-26T00:20:15.950Z,19.84
2018-07-26T00:21:16.191Z,19.80
2018-07-26T00:22:16.444Z,19.80
2018-07-26T00:23:16.685Z,19.87
2018-07-26T00:24:16.931Z,19.87
2018-07-26T00:25:17.174Z,19.84
2018-07-26T00:26:17.419Z,19.83
2018-07-26T00:27:17.662Z,19.80
2018-07-26T00:28:17.907Z,19.76
2018-07-26T00:29:18.152Z,19.80
2018-07-26T00:30:18.398Z,19.81
2018-07-26T00:31:18.644Z,19.86
2018-07-26T00:32:18.888Z,19.91
2018-07-26T00:33:19.134Z,19.87
2018-07-26T00:34:19.377Z,19.84
2018-07-26T00:35:19.627Z,19.78
2018-07-26T00:36:19.870Z,19.84
2018-07-26T00:37:20.119Z,19.87
2018-07-26T00:38:20.366Z,19.74
2018-07-26T00:39:20.610Z,19.74
2018-07-26T00:40:20.853Z,19.76
2018-07-26T00:41:21.112Z,19.77
2018-07-26T00:42:21.346Z,19.68
2018-07-26T00:43:21.588Z,19.68
2018-07-26T00:44:21.831Z,19.62
2018-07-26T00:45:22.077Z,19.55
2018-07-26T00:46:22.325Z,19.65
2018-07-26T00:47:22.572Z,19.51
2018-07-26T00:48:22.817Z,19.39
2018-07-26T00:49:23.063Z,19.40
2018-07-26T00:50:23.306Z,19.41
2018-07-26T00:51:23.551Z,19.39
2018-07-26T00:52:23.795Z,19.40
2018-07-26T00:53:24.042Z,19.31
2018-07-26T00:54:24.286Z,19.32
2018-07-26T00:55:24.534Z,19.37
2018-07-26T00:56:24.773Z,19.26
2018-07-26T00:57:25.027Z,19.32
2018-07-26T00:58:25.264Z,19.28
2018-07-26T00:59:25.512Z,19.37
2018-07-26T01:00:25.752Z,19.39
2018-07-26T01:01:25.997Z,19.36
2018-07-26T01:02:26.241Z,19.37
2018-07-26T01:03:26.486Z,19.31
2018-07-26T01:04:26.731Z,19.31
2018-07-26T01:05:26.975Z,19.32
2018-07-26T01:06:27.226Z,19.32
2018-07-26T01:07:27.464Z,19.29
2018-07-26T01:08:27.708Z,19.22
2018-07-26T01:09:28.007Z,19.23
2018-07-26T01:10:28.198Z,19.23
2018-07-26T01:11:28.443Z,19.23
2018-07-26T01:12:28.688Z,19.22
2018-07-26T01:13:28.932Z,19.23
2018-07-26T01:14:29.176Z,19.14
2018-07-26T01:15:29.424Z,19.13
2018-07-26T01:16:29.667Z,19.10
2018-07-26T01:17:29.911Z,19.04
2018-07-26T01:18:30.156Z,19.04
2018-07-26T01:19:30.401Z,18.85
2018-07-26T01:20:30.647Z,18.82
2018-07-26T01:21:30.892Z,18.73
2018-07-26T01:22:31.135Z,18.82
2018-07-26T01:23:31.378Z,18.70
2018-07-26T01:24:31.622Z,18.57
2018-07-26T01:25:31.868Z,18.63
2018-07-26T01:26:32.112Z,18.62
2018-07-26T01:27:32.362Z,18.51
2018-07-26T01:28:32.601Z,18.48
2018-07-26T01:29:32.845Z,18.50
2018-07-26T01:30:33.090Z,18.52
2018-07-26T01:31:33.335Z,18.51
2018-07-26T01:32:33.581Z,18.58
2018-07-26T01:33:33.824Z,18.60
2018-07-26T01:34:34.066Z,18.73
2018-07-26T01:35:34.313Z,18.85
2018-07-26T01:36:34.558Z,18.82
2018-07-26T01:37:34.803Z,18.81
2018-07-26T01:38:35.046Z,18.80
2018-07-26T01:39:35.292Z,18.75
2018-07-26T01:40:35.538Z,18.76
2018-07-26T01:41:35.782Z,18.81
2018-07-26T01:42:36.027Z,18.80
2018-07-26T01:43:36.272Z,18.76
2018-07-26T01:44:36.517Z,18.63
2018-07-26T01:45:36.761Z,18.65
2018-07-26T01:46:37.004Z,18.70
2018-07-26T01:47:37.250Z,18.85
2018-07-26T01:48:37.490Z,18.90
2018-07-26T01:49:37.734Z,18.91
2018-07-26T01:50:37.978Z,18.98
2018-07-26T01:51:38.223Z,19.02
2018-07-26T01:52:38.466Z,18.98
2018-07-26T01:53:38.712Z,19.04
2018-07-26T01:54:38.960Z,19.11
2018-07-26T01:55:39.199Z,19.04
2018-07-26T01:56:39.445Z,18.98
2018-07-26T01:57:39.689Z,19.00
2018-07-26T01:58:39.932Z,18.99
2018-07-26T01:59:40.174Z,18.95
2018-07-26T02:00:40.420Z,18.99
2018-07-26T02:01:40.676Z,19.00
2018-07-26T02:02:40.909Z,18.99
2018-07-26T02:03:41.152Z,19.07
2018-07-26T02:04:41.396Z,19.08
2018-07-26T02:05:41.641Z,18.95
2018-07-26T02:06:41.883Z,18.90
2018-07-26T02:07:42.129Z,18.85
2018-07-26T02:08:42.372Z,18.84
2018-07-26T02:09:42.617Z,18.84
2018-07-26T02:10:42.927Z,18.73
2018-07-26T02:11:43.109Z,18.76
2018-07-26T02:12:43.353Z,18.62
2018-07-26T02:13:43.600Z,18.69
2018-07-26T02:14:43.843Z,18.57
2018-07-26T02:15:44.088Z,18.63
2018-07-26T02:16:44.332Z,18.72
2018-07-26T02:17:44.581Z,18.85
2018-07-26T02:18:44.822Z,18.82
2018-07-26T02:19:45.066Z,18.98
2018-07-26T02:20:45.316Z,18.98
2018-07-26T02:21:45.553Z,19.07
2018-07-26T02:22:45.796Z,19.13
2018-07-26T02:23:46.041Z,19.11
2018-07-26T02:24:46.286Z,19.21
2018-07-26T02:25:46.527Z,19.23
2018-07-26T02:26:46.775Z,19.21
2018-07-26T02:27:47.016Z,19.23
2018-07-26T02:28:47.260Z,19.33
2018-07-26T02:29:47.504Z,19.32
2018-07-26T02:30:47.748Z,19.37
2018-07-26T02:31:47.993Z,19.43
2018-07-26T02:32:48.236Z,19.50
2018-07-26T02:33:48.480Z,19.41
2018-07-26T02:34:48.725Z,19.44
2018-07-26T02:35:48.970Z,19.44
2018-07-26T02:36:49.266Z,19.37
2018-07-26T02:37:49.457Z,19.40
2018-07-26T02:38:49.702Z,19.44
2018-07-26T02:39:49.950Z,19.32
2018-07-26T02:40:50.191Z,19.37
2018-07-26T02:41:50.432Z,19.25
2018-07-26T02:42:50.679Z,19.08
2018-07-26T02:43:50.925Z,18.94
2018-07-26T02:44:51.168Z,18.51
2018-07-26T02:45:51.413Z,18.17
2018-07-26T02:46:51.658Z,18.03
2018-07-26T02:47:51.907Z,17.96
2018-07-26T02:48:52.148Z,17.87
2018-07-26T02:49:52.393Z,17.89
2018-07-26T02:50:52.636Z,17.75
2018-07-26T02:51:52.881Z,17.81
2018-07-26T02:52:53.127Z,17.87
2018-07-26T02:53:53.369Z,17.87
2018-07-26T02:54:53.615Z,17.78
2018-07-26T02:55:53.859Z,17.90
2018-07-26T02:56:54.093Z,17.95
2018-07-26T02:57:54.351Z,17.93
2018-07-26T02:58:54.595Z,17.84
2018-07-26T02:59:54.847Z,17.82
2018-07-26T03:00:55.084Z,17.86
2018-07-26T03:01:55.329Z,17.87
2018-07-26T03:02:55.586Z,17.92
2018-07-26T03:03:55.816Z,17.79
2018-07-26T03:04:56.061Z,17.78
2018-07-26T03:05:56.306Z,17.72
2018-07-26T03:06:56.551Z,17.86
2018-07-26T03:07:56.794Z,17.87
2018-07-26T03:08:57.040Z,18.03
2018-07-26T03:09:57.284Z,17.99
2018-07-26T03:10:57.527Z,17.89
2018-07-26T03:11:57.769Z,17.93
2018-07-26T03:12:58.013Z,17.90
2018-07-26T03:13:58.259Z,17.87
2018-07-26T03:14:58.501Z,18.00
2018-07-26T03:15:58.742Z,18.03
2018-07-26T03:16:58.987Z,18.08
2018-07-26T03:17:59.231Z,18.11
2018-07-26T03:18:59.476Z,18.12
2018-07-26T03:19:59.719Z,18.21
2018-07-26T03:21:00.104Z,18.21
2018-07-26T03:22:00.207Z,18.20
2018-07-26T03:23:00.453Z,18.18
2018-07-26T03:24:00.697Z,18.21
2018-07-26T03:25:00.938Z,18.30
2018-07-26T03:26:01.186Z,18.30
2018-07-26T03:27:01.423Z,18.23
2018-07-26T03:28:01.668Z,18.32
2018-07-26T03:29:01.911Z,18.35
2018-07-26T03:30:02.165Z,18.29
2018-07-26T03:31:02.399Z,18.29
2018-07-26T03:32:02.643Z,18.27
2018-07-26T03:33:02.889Z,18.23
2018-07-26T03:34:03.129Z,18.12
2018-07-26T03:35:03.377Z,18.07
2018-07-26T03:36:03.619Z,18.05
2018-07-26T03:37:06.749Z,18.03
2018-07-26T03:38:04.232Z,17.93
2018-07-26T03:39:04.476Z,17.90
2018-07-26T03:40:04.713Z,17.87
2018-07-26T03:41:04.952Z,17.86
2018-07-26T03:42:05.198Z,17.78
2018-07-26T03:43:05.442Z,17.78
2018-07-26T03:44:05.686Z,17.72
2018-07-26T03:45:05.937Z,17.72
2018-07-26T03:46:06.174Z,17.63
2018-07-26T03:47:06.419Z,17.58
2018-07-26T03:48:06.663Z,17.56
2018-07-26T03:49:06.907Z,17.58
2018-07-26T03:50:07.153Z,17.58
2018-07-26T03:51:07.409Z,17.68
2018-07-26T03:52:07.640Z,17.64
2018-07-26T03:53:07.884Z,17.77
2018-07-26T03:54:08.128Z,17.64
2018-07-26T03:55:08.372Z,17.74
2018-07-26T03:56:08.616Z,17.74
2018-07-26T03:57:08.860Z,17.84
2018-07-26T03:58:09.104Z,17.75
2018-07-26T03:59:09.348Z,17.84
2018-07-26T04:00:09.593Z,17.87
2018-07-26T04:01:09.837Z,17.90
2018-07-26T04:02:10.080Z,17.78
2018-07-26T04:03:10.333Z,17.87
2018-07-26T04:04:10.571Z,17.79
2018-07-26T04:05:10.811Z,17.82
2018-07-26T04:06:11.056Z,17.86
2018-07-26T04:07:11.299Z,17.78
2018-07-26T04:08:11.544Z,17.78
2018-07-26T04:09:11.788Z,17.86
2018-07-26T04:10:12.033Z,17.74
2018-07-26T04:11:12.277Z,17.77
2018-07-26T04:12:12.523Z,17.90
2018-07-26T04:13:12.766Z,17.81
2018-07-26T04:14:13.009Z,17.87
2018-07-26T04:15:13.253Z,17.79
2018-07-26T04:16:13.499Z,17.87
2018-07-26T04:17:13.743Z,17.92
2018-07-26T04:18:13.987Z,17.86
2018-07-26T04:19:14.232Z,17.86
2018-07-26T04:20:14.478Z,17.95
2018-07-26T04:21:14.723Z,17.87
2018-07-26T04:22:14.969Z,17.87
2018-07-26T04:23:15.214Z,17.95
2018-07-26T04:24:15.462Z,17.99
2018-07-26T04:25:15.704Z,17.97
2018-07-26T04:26:15.950Z,18.00
2018-07-26T04:27:16.194Z,18.05
2018-07-26T04:28:16.439Z,18.02
2018-07-26T04:29:16.685Z,18.00
2018-07-26T04:30:16.929Z,18.07
2018-07-26T04:31:17.174Z,18.14
2018-07-26T04:32:17.446Z,18.17
2018-07-26T04:33:17.682Z,18.33
2018-07-26T04:34:17.906Z,18.32
2018-07-26T04:35:18.151Z,18.27
2018-07-26T04:36:18.394Z,18.32
2018-07-26T04:37:18.639Z,18.26
2018-07-26T04:38:18.883Z,18.29
2018-07-26T04:39:19.129Z,18.25
2018-07-26T04:40:19.373Z,18.27
2018-07-26T04:41:19.619Z,18.17
2018-07-26T04:42:19.863Z,18.17
2018-07-26T04:43:20.108Z,18.10
2018-07-26T04:44:20.352Z,18.12
2018-07-26T04:45:20.598Z,18.14
2018-07-26T04:46:20.841Z,18.20
2018-07-26T04:47:21.090Z,18.23
2018-07-26T04:48:21.332Z,18.20
2018-07-26T04:49:21.576Z,18.30
2018-07-26T04:50:21.822Z,18.36
2018-07-26T04:51:22.067Z,18.47
2018-07-26T04:52:22.311Z,18.44
2018-07-26T04:53:22.557Z,18.54
2018-07-26T04:54:22.801Z,18.65
2018-07-26T04:55:23.045Z,18.72
2018-07-26T04:56:23.290Z,18.81
2018-07-26T04:57:23.535Z,18.84
2018-07-26T04:58:23.781Z,18.99
2018-07-26T04:59:24.023Z,19.08
2018-07-26T05:00:24.268Z,19.08
2018-07-26T05:01:24.512Z,19.18
2018-07-26T05:02:24.758Z,19.32
2018-07-26T05:03:25.003Z,19.39
2018-07-26T05:04:25.247Z,19.39
2018-07-26T05:05:25.492Z,19.51
2018-07-26T05:06:25.737Z,19.55
2018-07-26T05:07:25.981Z,19.66
2018-07-26T05:08:26.225Z,19.66
2018-07-26T05:09:26.471Z,19.74
2018-07-26T05:10:26.716Z,19.76
2018-07-26T05:11:26.961Z,19.80
2018-07-26T05:12:27.207Z,19.84
2018-07-26T05:13:27.451Z,19.81
2018-07-26T05:14:27.702Z,19.84
2018-07-26T05:15:27.940Z,19.84
2018-07-26T05:16:28.185Z,19.94
2018-07-26T05:17:28.433Z,19.91
2018-07-26T05:18:28.690Z,19.95
2018-07-26T05:19:28.921Z,19.96
2018-07-26T05:20:29.168Z,19.96
2018-07-26T05:21:29.413Z,20.10
2018-07-26T05:22:29.658Z,20.20
2018-07-26T05:23:29.905Z,20.16
2018-07-26T05:24:30.153Z,20.28
2018-07-26T05:25:30.397Z,20.21
2018-07-26T05:26:30.644Z,20.39
2018-07-26T05:27:30.890Z,20.43
2018-07-26T05:28:31.136Z,20.48
2018-07-26T05:29:31.383Z,20.55
2018-07-26T05:30:31.628Z,20.52
2018-07-26T05:31:31.875Z,20.69
2018-07-26T05:32:32.118Z,20.66
2018-07-26T05:33:32.367Z,20.73
2018-07-26T05:34:32.619Z,20.69
2018-07-26T05:35:32.862Z,20.84
2018-07-26T05:36:33.108Z,20.80
2018-07-26T05:37:33.394Z,20.89
2018-07-26T05:38:33.611Z,20.98
2018-07-26T05:39:33.848Z,20.92
2018-07-26T05:40:34.090Z,21.04
2018-07-26T05:41:34.339Z,21.06
2018-07-26T05:42:34.584Z,21.09
2018-07-26T05:43:34.830Z,21.12
2018-07-26T05:44:35.077Z,21.21
2018-07-26T05:45:35.323Z,21.22
2018-07-26T05:46:35.567Z,21.29
2018-07-26T05:47:35.816Z,21.28
2018-07-26T05:48:36.060Z,21.28
2018-07-26T05:49:36.307Z,21.35
2018-07-26T05:50:36.553Z,21.32
2018-07-26T05:51:36.801Z,21.42
2018-07-26T05:52:37.045Z,21.50
2018-07-26T05:53:37.294Z,21.54
2018-07-26T05:54:37.541Z,21.54
2018-07-26T05:55:37.850Z,21.52
2018-07-26T05:56:38.094Z,21.56
2018-07-26T05:57:38.351Z,21.58
2018-07-26T05:58:38.590Z,21.49
2018-07-26T05:59:38.833Z,21.62
2018-07-26T06:00:39.080Z,21.68
2018-07-26T06:01:39.327Z,21.68
2018-07-26T06:02:39.574Z,21.82
2018-07-26T06:03:39.821Z,21.80
2018-07-26T06:04:40.068Z,21.79
2018-07-26T06:05:40.316Z,21.75
2018-07-26T06:06:40.562Z,21.80
2018-07-26T06:07:40.810Z,21.94
2018-07-26T06:08:41.055Z,22.02
2018-07-26T06:09:41.341Z,22.05
2018-07-26T06:10:41.551Z,22.12
2018-07-26T06:11:41.798Z,22.22
2018-07-26T06:12:42.051Z,22.42
2018-07-26T06:13:42.292Z,22.51
2018-07-26T06:14:42.538Z,22.47
2018-07-26T06:15:42.788Z,22.67
2018-07-26T06:16:43.032Z,22.82
2018-07-26T06:17:43.280Z,22.95
2018-07-26T06:18:43.527Z,22.91
2018-07-26T06:19:43.776Z,23.01
2018-07-26T06:20:44.045Z,23.13
2018-07-26T06:21:44.269Z,23.22
2018-07-26T06:22:44.514Z,23.38
2018-07-26T06:23:44.763Z,23.42
2018-07-26T06:24:45.009Z,23.48
2018-07-26T06:25:45.256Z,23.60
2018-07-26T06:26:45.503Z,23.79
2018-07-26T06:27:45.755Z,23.85
2018-07-26T06:28:46.001Z,23.88
2018-07-26T06:29:46.249Z,24.10
2018-07-26T06:30:46.497Z,24.12
2018-07-26T06:31:46.748Z,24.27
2018-07-26T06:32:46.991Z,24.37
2018-07-26T06:33:47.291Z,24.39
2018-07-26T06:34:47.487Z,24.57
2018-07-26T06:35:47.737Z,24.49
2018-07-26T06:36:47.984Z,24.64
2018-07-26T06:37:48.231Z,24.80
2018-07-26T06:38:48.478Z,24.80
2018-07-26T06:39:48.726Z,24.81
2018-07-26T06:40:48.974Z,24.91
2018-07-26T06:41:49.224Z,25.10
2018-07-26T06:42:49.471Z,25.17
2018-07-26T06:43:49.721Z,25.06
2018-07-26T06:44:49.968Z,25.17
2018-07-26T06:45:50.216Z,25.28
2018-07-26T06:46:50.464Z,25.35
2018-07-26T06:47:50.714Z,25.51
2018-07-26T06:48:50.960Z,25.67
2018-07-26T06:49:51.206Z,25.67
2018-07-26T06:50:51.456Z,25.65
2018-07-26T06:51:51.705Z,25.77
2018-07-26T06:52:51.982Z,25.80
2018-07-26T06:53:52.203Z,25.87
2018-07-26T06:54:52.452Z,25.95
2018-07-26T06:55:52.691Z,26.06
2018-07-26T06:56:52.940Z,26.05
2018-07-26T06:57:53.188Z,26.07
2018-07-26T06:58:53.436Z,26.25
2018-07-26T06:59:53.683Z,26.28
2018-07-26T07:00:53.946Z,26.39
2018-07-26T07:01:54.179Z,26.35
2018-07-26T07:02:54.426Z,26.55
2018-07-26T07:03:54.674Z,26.60
2018-07-26T07:04:54.922Z,26.70
2018-07-26T07:05:55.170Z,26.77
2018-07-26T07:06:55.421Z,26.73
2018-07-26T07:07:55.667Z,26.82
2018-07-26T07:08:55.915Z,26.89
2018-07-26T07:09:56.165Z,27.00
2018-07-26T07:10:56.414Z,27.04
2018-07-26T07:11:56.662Z,27.24
2018-07-26T07:12:56.910Z,27.37
2018-07-26T07:13:57.159Z,27.66
2018-07-26T07:14:57.405Z,28.09
2018-07-26T07:15:57.656Z,28.95
2018-07-26T07:16:57.902Z,29.76
2018-07-26T07:17:58.150Z,30.43
2018-07-26T07:18:58.398Z,31.47
2018-07-26T07:19:58.646Z,32.06
2018-07-26T07:20:58.894Z,32.78
2018-07-26T07:21:59.145Z,33.19
2018-07-26T07:22:59.398Z,33.81
2018-07-26T07:23:59.646Z,34.61
2018-07-26T07:24:59.892Z,34.89
2018-07-26T07:26:00.146Z,35.41
2018-07-26T07:27:00.395Z,35.80
2018-07-26T07:28:00.645Z,35.47
2018-07-26T07:29:00.893Z,35.55
2018-07-26T07:30:01.145Z,35.70
2018-07-26T07:31:01.395Z,35.70
2018-07-26T07:32:01.646Z,35.84
2018-07-26T07:33:01.898Z,35.96
2018-07-26T07:34:02.146Z,36.00
2018-07-26T07:35:02.402Z,36.01
2018-07-26T07:36:02.650Z,36.15
2018-07-26T07:37:02.913Z,36.25
2018-07-26T07:38:03.164Z,35.52
2018-07-26T07:39:03.417Z,35.97
2018-07-26T07:40:03.670Z,36.05
2018-07-26T07:41:03.923Z,36.46
2018-07-26T07:42:04.173Z,36.80
2018-07-26T07:43:04.429Z,37.22
2018-07-26T07:44:04.679Z,37.37
2018-07-26T07:45:04.932Z,37.66
2018-07-26T07:46:05.185Z,37.72
2018-07-26T07:47:05.441Z,37.97
2018-07-26T07:48:05.691Z,37.93
2018-07-26T07:49:05.944Z,38.37
2018-07-26T07:50:06.200Z,38.71
2018-07-26T07:51:06.454Z,38.91
2018-07-26T07:52:06.708Z,38.46
2018-07-26T07:53:06.963Z,38.54
2018-07-26T07:54:07.260Z,38.52
2018-07-26T07:55:07.512Z,38.44
2018-07-26T07:56:07.769Z,38.38
2018-07-26T07:57:08.058Z,38.30
2018-07-26T07:58:08.314Z,38.34
2018-07-26T07:59:08.573Z,37.67
2018-07-26T08:00:08.825Z,37.96
2018-07-26T08:01:09.081Z,38.35
2018-07-26T08:02:09.368Z,38.07
2018-07-26T08:03:09.624Z,38.15
2018-07-26T08:04:09.880Z,38.50
2018-07-26T08:05:10.143Z,38.86
2018-07-26T08:06:10.391Z,39.14
2018-07-26T08:07:10.647Z,39.35
2018-07-26T08:08:10.903Z,39.30
2018-07-26T08:09:11.157Z,39.26
2018-07-26T08:10:11.413Z,39.13
2018-07-26T08:11:11.696Z,39.03
2018-07-26T08:12:11.928Z,39.10
2018-07-26T08:13:12.192Z,39.16
2018-07-26T08:14:12.454Z,39.11
2018-07-26T08:15:12.712Z,39.59
2018-07-26T08:16:12.972Z,39.85
2018-07-26T08:17:13.224Z,39.97
2018-07-26T08:18:13.508Z,39.94
2018-07-26T08:19:13.769Z,39.92
2018-07-26T08:20:14.026Z,39.97
2018-07-26T08:21:14.293Z,40.15
2018-07-26T08:22:14.541Z,40.20
2018-07-26T08:23:14.825Z,39.79
2018-07-26T08:24:15.082Z,39.48
2018-07-26T08:25:15.371Z,39.03
2018-07-26T08:26:15.629Z,38.78
2018-07-26T08:27:15.886Z,38.81
2018-07-26T08:28:16.141Z,38.93
2018-07-26T08:29:16.450Z,38.86
2018-07-26T08:30:16.656Z,39.17
2018-07-26T08:31:16.929Z,39.64
2018-07-26T08:32:17.193Z,39.70
2018-07-26T08:33:17.449Z,39.79
2018-07-26T08:34:17.704Z,39.60
2018-07-26T08:35:17.959Z,39.57
2018-07-26T08:36:18.219Z,39.28
2018-07-26T08:37:18.546Z,39.01
2018-07-26T08:38:18.813Z,39.23
2018-07-26T08:39:19.095Z,39.62
2018-07-26T08:40:19.366Z,40.04
2018-07-26T08:41:19.659Z,39.91
2018-07-26T08:42:19.919Z,39.47
2018-07-26T08:43:20.177Z,39.22
2018-07-26T08:44:20.436Z,39.22
2018-07-26T08:45:20.692Z,39.30
2018-07-26T08:46:20.950Z,39.55
2018-07-26T08:47:21.207Z,39.26
2018-07-26T08:48:21.465Z,39.03
2018-07-26T08:49:21.722Z,39.51
2018-07-26T08:50:21.980Z,39.17
2018-07-26T08:51:22.237Z,39.25
2018-07-26T08:52:22.495Z,38.83
2018-07-26T08:53:22.756Z,38.91
2018-07-26T08:54:23.012Z,39.67
2018-07-26T08:55:23.268Z,39.91
2018-07-26T08:56:23.527Z,40.20
2018-07-26T08:57:23.784Z,40.29
2018-07-26T08:58:24.045Z,41.30
2018-07-26T08:59:24.301Z,41.64
2018-07-26T09:00:24.561Z,41.44
2018-07-26T09:01:24.821Z,40.95
2018-07-26T09:02:25.080Z,40.98
2018-07-26T09:03:25.335Z,41.41
2018-07-26T09:04:25.632Z,41.86
2018-07-26T09:05:25.856Z,41.54
2018-07-26T09:06:26.115Z,42.02
2018-07-26T09:07:26.442Z,41.06
2018-07-26T09:08:26.699Z,40.60
2018-07-26T09:09:26.960Z,40.64
2018-07-26T09:10:27.218Z,40.77
2018-07-26T09:11:27.514Z,41.13
2018-07-26T09:12:27.742Z,40.74
2018-07-26T09:13:28.023Z,40.84
2018-07-26T09:14:28.259Z,40.70
2018-07-26T09:15:28.527Z,40.41
2018-07-26T09:16:28.783Z,39.75
2018-07-26T09:17:29.040Z,39.78
2018-07-26T09:18:29.300Z,40.25
2018-07-26T09:19:29.559Z,40.60
2018-07-26T09:20:29.820Z,41.14
2018-07-26T09:21:30.080Z,41.45
2018-07-26T09:22:30.339Z,42.05
2018-07-26T09:23:30.599Z,42.20
2018-07-26T09:24:31.012Z,41.98
2018-07-26T09:25:31.246Z,42.05
2018-07-26T09:26:31.509Z,41.91
2018-07-26T09:27:31.768Z,41.64
2018-07-26T09:28:32.028Z,40.92
2018-07-26T09:29:32.414Z,40.65
2018-07-26T09:30:32.680Z,40.73
2018-07-26T09:31:33.011Z,40.79
2018-07-26T09:32:33.312Z,39.70
2018-07-26T09:33:33.572Z,39.11
2018-07-26T09:34:33.833Z,39.36
2018-07-26T09:35:34.178Z,39.69
2018-07-26T09:36:35.333Z,40.10
2018-07-26T09:37:34.673Z,39.04
2018-07-26T09:38:34.934Z,38.19
2018-07-26T09:39:35.195Z,39.04
2018-07-26T09:40:35.457Z,39.82
2018-07-26T09:41:35.800Z,40.12
2018-07-26T09:42:36.049Z,39.40
2018-07-26T09:43:36.310Z,39.50
2018-07-26T09:44:36.574Z,39.92
2018-07-26T09:45:36.836Z,40.13
2018-07-26T09:46:37.094Z,40.62
2018-07-26T09:47:37.353Z,40.77
2018-07-26T09:48:37.613Z,40.54
2018-07-26T09:49:37.904Z,40.18
2018-07-26T09:50:38.133Z,39.64
2018-07-26T09:51:38.392Z,39.89
2018-07-26T09:52:38.654Z,40.19
2018-07-26T09:53:38.912Z,40.87
2018-07-26T09:54:39.173Z,41.29
2018-07-26T09:55:39.457Z,40.89
2018-07-26T09:56:39.716Z,41.06
2018-07-26T09:57:39.976Z,41.10
2018-07-26T09:58:40.236Z,41.35
2018-07-26T09:59:40.497Z,41.64
2018-07-26T10:00:40.757Z,41.70
2018-07-26T10:01:41.018Z,41.93
2018-07-26T10:02:41.279Z,41.84
2018-07-26T10:03:41.553Z,42.58
2018-07-26T10:04:41.801Z,42.73
2018-07-26T10:05:42.065Z,42.33
2018-07-26T10:06:42.324Z,41.73
2018-07-26T10:07:42.586Z,40.55
2018-07-26T10:08:42.846Z,40.18
2018-07-26T10:09:43.108Z,40.13
2018-07-26T10:10:43.373Z,40.73
2018-07-26T10:11:43.631Z,39.43
2018-07-26T10:12:43.892Z,38.86
2018-07-26T10:13:44.151Z,40.43
2018-07-26T10:14:44.411Z,40.99
2018-07-26T10:15:44.732Z,40.80
2018-07-26T10:16:44.932Z,40.15
2018-07-26T10:17:45.193Z,40.65
2018-07-26T10:18:45.453Z,40.70
2018-07-26T10:19:45.714Z,40.83
2018-07-26T10:20:45.975Z,40.95
2018-07-26T10:21:46.236Z,40.26
2018-07-26T10:22:46.497Z,40.23
2018-07-26T10:23:46.758Z,40.23
2018-07-26T10:24:47.013Z,40.54
2018-07-26T10:25:47.273Z,40.04
2018-07-26T10:26:47.534Z,40.22
2018-07-26T10:27:47.840Z,39.94
2018-07-26T10:28:48.056Z,39.98
2018-07-26T10:29:48.318Z,39.54
2018-07-26T10:30:48.578Z,39.81
2018-07-26T10:31:48.842Z,40.00
2018-07-26T10:32:49.102Z,40.32
2018-07-26T10:33:49.361Z,40.31
2018-07-26T10:34:49.624Z,39.72
2018-07-26T10:35:49.894Z,40.15
2018-07-26T10:36:50.148Z,40.23
2018-07-26T10:37:50.405Z,40.00
2018-07-26T10:38:50.667Z,39.82
2018-07-26T10:39:50.927Z,39.55
2018-07-26T10:40:51.186Z,39.92
2018-07-26T10:41:51.445Z,39.50
2018-07-26T10:42:51.731Z,39.62
2018-07-26T10:43:51.972Z,40.07
2018-07-26T10:44:52.227Z,40.54
2018-07-26T10:45:52.488Z,40.73
2018-07-26T10:46:52.748Z,41.45
2018-07-26T10:47:53.010Z,41.48
2018-07-26T10:48:53.270Z,41.44
2018-07-26T10:49:53.568Z,41.73
2018-07-26T10:50:53.792Z,40.83
2018-07-26T10:51:54.056Z,40.08
2018-07-26T10:52:54.315Z,40.60
2018-07-26T10:53:54.575Z,40.38
2018-07-26T10:54:54.837Z,40.25
2018-07-26T10:55:55.103Z,40.69
2018-07-26T10:56:55.360Z,40.96
2018-07-26T10:57:55.621Z,41.02
2018-07-26T10:58:55.883Z,41.64
2018-07-26T10:59:56.142Z,41.55
2018-07-26T11:00:56.404Z,41.52
2018-07-26T11:01:56.666Z,41.66
2018-07-26T11:02:56.926Z,41.20
2018-07-26T11:03:57.194Z,40.96
2018-07-26T11:04:57.450Z,40.27
2018-07-26T11:05:57.711Z,40.04
2018-07-26T11:06:57.970Z,40.80
2018-07-26T11:07:58.235Z,39.45
2018-07-26T11:08:58.498Z,37.81
2018-07-26T11:09:58.763Z,39.11
2018-07-26T11:10:59.026Z,39.67
2018-07-26T11:11:59.344Z,39.94
2018-07-26T11:12:59.618Z,39.97
2018-07-26T11:13:59.879Z,39.26
2018-07-26T11:15:00.150Z,39.10
2018-07-26T11:16:00.433Z,39.67
2018-07-26T11:17:00.699Z,40.26
2018-07-26T11:18:00.959Z,41.08
2018-07-26T11:19:01.265Z,41.91
2018-07-26T11:20:01.483Z,42.13
2018-07-26T11:21:01.749Z,42.36
2018-07-26T11:22:02.005Z,41.73
2018-07-26T11:23:02.264Z,41.36
2018-07-26T11:24:02.532Z,40.89
2018-07-26T11:25:02.789Z,40.82
2018-07-26T11:26:03.050Z,41.08
2018-07-26T11:27:03.378Z,40.77
2018-07-26T11:28:03.613Z,40.89
2018-07-26T11:29:03.870Z,41.71
2018-07-26T11:30:04.204Z,42.58
2018-07-26T11:31:04.409Z,42.68
2018-07-26T11:32:04.671Z,42.42
2018-07-26T11:33:04.936Z,41.93
2018-07-26T11:34:05.238Z,41.16
2018-07-26T11:35:05.537Z,40.73
2018-07-26T11:36:05.821Z,39.64
2018-07-26T11:37:06.084Z,39.48
2018-07-26T11:38:06.383Z,39.25
2018-07-26T11:39:06.641Z,39.11
2018-07-26T11:40:06.924Z,39.18
2018-07-26T11:41:07.186Z,39.29
2018-07-26T11:42:07.485Z,39.11
2018-07-26T11:43:07.768Z,39.25
2018-07-26T11:44:08.053Z,39.54
2018-07-26T11:45:08.317Z,39.29
2018-07-26T11:46:08.578Z,40.25
2018-07-26T11:47:08.838Z,41.06
2018-07-26T11:48:09.100Z,41.16
2018-07-26T11:49:09.362Z,41.20
2018-07-26T11:50:09.665Z,41.35
2018-07-26T11:51:09.955Z,41.80
2018-07-26T11:52:10.235Z,41.69
2018-07-26T11:53:10.527Z,41.37
2018-07-26T11:54:10.784Z,41.58
2018-07-26T11:55:11.070Z,41.57
2018-07-26T11:56:11.379Z,41.48
2018-07-26T11:57:11.643Z,41.44
2018-07-26T11:58:11.945Z,41.17
2018-07-26T11:59:12.198Z,40.89
2018-07-26T12:00:12.499Z,40.96
2018-07-26T12:01:12.760Z,40.87
2018-07-26T12:02:13.020Z,40.73
2018-07-26T12:03:13.280Z,39.79
2018-07-26T12:04:13.586Z,36.69
2018-07-26T12:05:13.849Z,37.82
2018-07-26T12:06:14.126Z,38.46
2018-07-26T12:07:14.366Z,38.71
2018-07-26T12:08:14.696Z,38.68
2018-07-26T12:09:14.889Z,39.10
2018-07-26T12:10:15.151Z,38.99
2018-07-26T12:11:15.414Z,36.99
2018-07-26T12:12:15.677Z,36.65
2018-07-26T12:13:15.984Z,37.10
2018-07-26T12:14:16.261Z,36.49
2018-07-26T12:15:16.518Z,37.12
2018-07-26T12:16:16.775Z,38.34
2018-07-26T12:17:17.037Z,39.11
2018-07-26T12:18:17.295Z,39.63
2018-07-26T12:19:17.576Z,40.15
2018-07-26T12:20:17.838Z,40.19
2018-07-26T12:21:18.134Z,39.92
2018-07-26T12:22:18.397Z,39.96
2018-07-26T12:23:18.657Z,39.72
2018-07-26T12:24:18.918Z,38.90
2018-07-26T12:25:19.177Z,39.47
2018-07-26T12:26:19.440Z,39.70
2018-07-26T12:27:19.700Z,40.18
2018-07-26T12:28:19.962Z,40.57
2018-07-26T12:29:20.224Z,40.07
2018-07-26T12:30:20.581Z,40.26
2018-07-26T12:31:20.789Z,40.38
2018-07-26T12:32:21.104Z,40.55
2018-07-26T12:33:21.307Z,40.88
2018-07-26T12:34:21.568Z,40.80
2018-07-26T12:35:21.825Z,40.42
2018-07-26T12:36:22.083Z,40.58
2018-07-26T12:37:22.356Z,40.69
2018-07-26T12:38:22.622Z,41.18
2018-07-26T12:39:22.903Z,41.63
2018-07-26T12:40:23.171Z,41.51
2018-07-26T12:41:23.427Z,41.67
2018-07-26T12:42:23.687Z,41.76
2018-07-26T12:43:23.949Z,41.90
2018-07-26T12:44:24.208Z,41.69
2018-07-26T12:45:24.469Z,41.42
2018-07-26T12:46:24.729Z,41.14
2018-07-26T12:47:25.030Z,41.01
2018-07-26T12:48:25.283Z,40.74
2018-07-26T12:49:25.544Z,40.82
2018-07-26T12:50:25.808Z,40.91
2018-07-26T12:51:26.064Z,40.84
2018-07-26T12:52:26.353Z,41.01
2018-07-26T12:53:26.636Z,41.23
2018-07-26T12:54:26.891Z,41.26
2018-07-26T12:55:27.150Z,40.65